Time;durP1;ratioP1;P1;durP2;ratioP2;P2;SDS_P1;SDS_P2;PMS_P1;PMS_P2;Temp;Humidity;BMP_temperature;BMP_pressure;BME280_temperature;BME280_humidity;BME280_pressure;Samples;Min_cycle;Max_cycle;Signal;HPM_P1;HPM_P2
2022/10/09 00:01:05;;;;;;;0.77;0.47;;;22.50;60.70;;;;;;5033218;28;20029;-49
2022/10/09 00:03:32;;;;;;;1.27;0.57;;;22.50;60.60;;;;;;5031646;28;20040;-42
2022/10/09 00:05:58;;;;;;;0.90;0.55;;;22.50;60.60;;;;;;5038083;28;20620;-57
2022/10/09 00:08:24;;;;;;;2.08;0.40;;;22.50;60.20;;;;;;5021935;28;20585;-42
2022/10/09 00:10:50;;;;;;;1.38;0.32;;;22.60;59.70;;;;;;5023590;28;20060;-43
2022/10/09 00:13:17;;;;;;;0.50;0.40;;;22.60;59.50;;;;;;5019094;28;20817;-41
2022/10/09 00:15:43;;;;;;;0.73;0.40;;;22.70;59.40;;;;;;5025331;28;20275;-53
2022/10/09 00:18:11;;;;;;;1.13;0.70;;;22.70;59.40;;;;;;5023995;28;20029;-40
2022/10/09 00:20:37;;;;;;;;;;;22.70;59.40;;;;;;5019997;28;20065;-39
2022/10/09 00:23:03;;;;;;;0.60;0.45;;;22.70;59.30;;;;;;5022439;28;19969;-40
2022/10/09 00:25:29;;;;;;;1.08;0.50;;;22.70;59.20;;;;;;5021844;28;20060;-40
2022/10/09 00:27:59;;;;;;;2.00;0.52;;;22.70;59.10;;;;;;5026059;28;20033;-42
2022/10/09 00:30:25;;;;;;;2.55;1.05;;;22.70;59.00;;;;;;5021988;28;20050;-40
2022/10/09 00:32:52;;;;;;;2.10;0.60;;;22.70;59.00;;;;;;5021504;28;20644;-40
2022/10/09 00:35:18;;;;;;;2.55;0.40;;;22.70;58.90;;;;;;5019725;28;20029;-40
2022/10/09 00:37:45;;;;;;;2.47;0.60;;;22.70;58.90;;;;;;5022589;28;20053;-44
2022/10/09 00:40:11;;;;;;;0.77;0.38;;;22.80;59.00;;;;;;5022341;28;20062;-40
2022/10/09 00:42:37;;;;;;;1.98;0.60;;;22.80;58.70;;;;;;5022039;28;20088;-40
2022/10/09 00:45:03;;;;;;;2.35;0.57;;;22.80;58.80;;;;;;5020975;28;20660;-41
2022/10/09 00:48:00;;;;;;;1.40;0.35;;;22.80;58.70;;;;;;5028972;28;20034;-43
2022/10/09 00:50:47;;;;;;;0.75;0.45;;;22.80;58.50;;;;;;5016658;28;20069;-40
2022/10/09 00:53:15;;;;;;;1.67;0.50;;;22.80;58.60;;;;;;5002608;28;20553;-42
2022/10/09 00:55:42;;;;;;;2.25;0.50;;;22.80;58.60;;;;;;5017153;28;20033;-40
2022/10/09 00:58:08;;;;;;;1.17;0.50;;;22.90;58.70;;;;;;5020704;28;20105;-41
2022/10/09 01:00:34;;;;;;;3.15;0.45;;;22.90;58.60;;;;;;5032095;28;20034;-47
2022/10/09 01:03:01;;;;;;;1.10;0.40;;;22.90;58.50;;;;;;5028300;28;20037;-38
2022/10/09 01:05:35;;;;;;;3.13;0.30;;;22.90;58.30;;;;;;5031897;28;20093;-40
2022/10/09 01:08:08;;;;;;;0.68;0.40;;;22.90;58.20;;;;;;5028939;28;20045;-41
2022/10/09 01:10:53;;;;;;;0.73;0.40;;;22.90;58.20;;;;;;5033923;28;20033;-41
2022/10/09 01:13:26;;;;;;;0.98;0.47;;;22.90;58.10;;;;;;5021443;28;20080;-40
2022/10/09 01:16:16;;;;;;;3.05;0.68;;;22.90;58.20;;;;;;5027175;28;20037;-39
2022/10/09 01:18:44;;;;;;;4.07;0.80;;;22.90;58.20;;;;;;5021035;28;20041;-39
2022/10/09 01:21:30;;;;;;;15.35;1.50;;;22.90;58.90;;;;;;5038664;28;20108;-40
2022/10/09 01:24:26;;;;;;;20.58;1.98;;;22.90;59.30;;;;;;5038776;28;20076;-45
2022/10/09 01:27:24;;;;;;;13.77;1.70;;;23.00;59.80;;;;;;5008391;28;20772;-41
2022/10/09 01:29:55;;;;;;;10.27;1.38;;;23.10;59.80;;;;;;4986471;28;20038;-54
2022/10/09 01:32:24;;;;;;;2.65;0.77;;;23.10;59.50;;;;;;4989396;28;20102;-43
2022/10/09 01:34:50;;;;;;;4.70;0.70;;;23.10;59.50;;;;;;4976945;28;20042;-40
2022/10/09 01:37:16;;;;;;;3.03;0.80;;;23.10;59.40;;;;;;4985333;28;20034;-43
2022/10/09 01:39:43;;;;;;;3.47;0.77;;;23.10;59.40;;;;;;4987894;28;20538;-44
2022/10/09 01:42:10;;;;;;;6.63;0.90;;;23.10;59.40;;;;;;4966927;28;20098;-50
2022/10/09 01:44:36;;;;;;;1.98;0.82;;;23.20;59.40;;;;;;4995643;28;20031;-39
2022/10/09 01:47:03;;;;;;;4.97;0.88;;;23.20;59.20;;;;;;4990838;28;20129;-42
2022/10/09 01:49:54;;;;;;;4.00;0.70;;;23.20;59.10;;;;;;4950962;28;20030;-41
2022/10/09 01:52:35;;;;;;;5.00;0.70;;;23.20;58.80;;;;;;4944226;28;20043;-57
2022/10/09 01:55:33;;;;;;;5.88;0.50;;;23.20;58.50;;;;;;4992897;28;20066;-39
2022/10/09 01:58:02;;;;;;;1.52;0.57;;;23.20;58.40;;;;;;4981592;28;20034;-44
2022/10/09 02:00:33;;;;;;;2.80;0.70;;;23.30;58.10;;;;;;4979468;28;20030;-42
2022/10/09 02:02:59;;;;;;;0.95;0.50;;;23.20;58.00;;;;;;4991477;28;20531;-43
2022/10/09 02:05:26;;;;;;;3.15;0.73;;;23.20;57.90;;;;;;5002239;28;20125;-53
2022/10/09 02:07:52;;;;;;;;;;;23.20;57.90;;;;;;5033478;28;20493;-38
2022/10/09 02:10:18;;;;;;;1.52;0.52;;;23.20;58.00;;;;;;5020214;28;19949;-37
2022/10/09 02:12:47;;;;;;;0.93;0.65;;;23.20;57.60;;;;;;5022263;28;20137;-38
2022/10/09 02:15:15;;;;;;;1.38;0.52;;;23.20;57.90;;;;;;5024124;28;20021;-39
2022/10/09 02:17:46;;;;;;;1.13;0.57;;;23.20;57.80;;;;;;5025825;28;20038;-45
2022/10/09 02:20:29;;;;;;;1.55;0.50;;;23.20;57.80;;;;;;5020236;28;20029;-42
2022/10/09 02:22:58;;;;;;;1.55;0.50;;;23.20;57.60;;;;;;5020381;28;20022;-44
2022/10/09 02:25:25;;;;;;;1.20;0.50;;;23.20;57.40;;;;;;5047160;28;20026;-44
2022/10/09 02:27:51;;;;;;;1.60;0.50;;;23.20;57.50;;;;;;5023437;28;20133;-50
2022/10/09 02:30:17;;;;;;;1.90;0.50;;;23.20;57.60;;;;;;5039178;28;20108;-48
2022/10/09 02:32:44;;;;;;;1.10;0.50;;;23.10;57.50;;;;;;5001442;28;20057;-45
2022/10/09 02:35:10;;;;;;;2.42;0.60;;;23.10;57.50;;;;;;5025076;28;20450;-47
2022/10/09 02:37:36;;;;;;;0.57;0.53;;;23.10;57.50;;;;;;5023787;28;20026;-36
2022/10/09 02:40:22;;;;;;;0.68;0.40;;;23.10;57.60;;;;;;5026682;28;20083;-42
2022/10/09 02:42:49;;;;;;;0.98;0.47;;;23.10;57.50;;;;;;4940983;29;20036;-39
2022/10/09 02:45:15;;;;;;;1.52;0.40;;;23.10;57.60;;;;;;4941536;29;20043;-36
2022/10/09 02:47:41;;;;;;;0.70;0.40;;;23.10;57.50;;;;;;4933648;29;20036;-39
2022/10/09 02:50:32;;;;;;;0.68;0.60;;;23.10;57.60;;;;;;4937391;29;20128;-45
2022/10/09 02:52:59;;;;;;;0.40;0.40;;;23.10;57.70;;;;;;4945456;29;20035;-48
2022/10/09 02:55:25;;;;;;;0.57;0.40;;;23.10;57.80;;;;;;4926886;29;20063;-38
2022/10/09 02:57:58;;;;;;;0.73;0.50;;;23.10;57.80;;;;;;4945169;29;20560;-39
2022/10/09 03:00:26;;;;;;;1.35;0.50;;;23.10;57.90;;;;;;4941313;29;20067;-40
2022/10/09 03:02:52;;;;;;;0.63;0.40;;;23.10;57.90;;;;;;4938931;29;20031;-41
2022/10/09 03:05:19;;;;;;;1.02;0.57;;;23.00;57.60;;;;;;4942705;29;20039;-45
2022/10/09 03:07:50;;;;;;;0.80;0.30;;;23.00;57.70;;;;;;4942627;29;20051;-43
2022/10/09 03:10:20;;;;;;;0.80;0.50;;;23.00;57.70;;;;;;4940213;29;20032;-42
2022/10/09 03:12:46;;;;;;;0.50;0.40;;;23.00;57.80;;;;;;4923313;29;20076;-36
2022/10/09 03:15:16;;;;;;;0.55;0.38;;;23.00;57.80;;;;;;4938290;29;20020;-37
2022/10/09 03:17:42;;;;;;;0.40;0.38;;;23.00;57.60;;;;;;4942798;29;20036;-42
2022/10/09 03:20:08;;;;;;;1.05;0.40;;;23.00;57.60;;;;;;4987529;28;20038;-41
2022/10/09 03:22:34;;;;;;;0.50;0.40;;;22.90;57.50;;;;;;5023021;28;20048;-39
2022/10/09 03:25:01;;;;;;;0.50;0.43;;;22.90;57.60;;;;;;5035185;28;20055;-38
2022/10/09 03:27:27;;;;;;;0.30;0.30;;;23.00;57.90;;;;;;5025398;28;20049;-38
2022/10/09 03:29:54;;;;;;;0.60;0.50;;;23.00;58.00;;;;;;5033290;28;20159;-38
2022/10/09 03:32:21;;;;;;;1.00;0.40;;;23.00;57.80;;;;;;5017651;28;20038;-39
2022/10/09 03:34:47;;;;;;;0.45;0.40;;;23.00;57.80;;;;;;5019710;28;20058;-39
2022/10/09 03:37:13;;;;;;;0.50;0.45;;;23.00;57.80;;;;;;5020745;28;20047;-39
2022/10/09 03:39:40;;;;;;;0.30;0.30;;;23.00;57.60;;;;;;5022736;28;20026;-38
2022/10/09 03:42:06;;;;;;;0.90;0.50;;;23.00;57.70;;;;;;5039740;28;20029;-38
2022/10/09 03:44:32;;;;;;;0.47;0.47;;;23.00;58.00;;;;;;5015128;28;20274;-38
2022/10/09 03:46:58;;;;;;;0.30;0.30;;;23.00;57.90;;;;;;5025139;28;20033;-39
2022/10/09 03:49:24;;;;;;;0.93;0.40;;;23.00;58.00;;;;;;5028898;28;20039;-39
2022/10/09 03:51:50;;;;;;;0.40;0.35;;;23.00;57.80;;;;;;5015709;28;20038;-40
2022/10/09 03:54:17;;;;;;;1.42;0.38;;;23.00;57.80;;;;;;5032377;28;20854;-39
2022/10/09 03:56:43;;;;;;;0.40;0.30;;;23.00;57.60;;;;;;5031356;28;20038;-42
2022/10/09 03:59:09;;;;;;;0.47;0.43;;;23.00;57.60;;;;;;5022455;28;20034;-39
2022/10/09 04:01:35;;;;;;;0.82;0.40;;;23.00;57.60;;;;;;5026912;28;20040;-36
2022/10/09 04:04:01;;;;;;;0.30;0.30;;;23.00;57.60;;;;;;5023192;28;20030;-48
2022/10/09 04:06:28;;;;;;;0.75;0.50;;;23.00;57.90;;;;;;5020733;28;20057;-49
2022/10/09 04:08:55;;;;;;;2.17;0.50;;;23.00;57.90;;;;;;5029344;28;20105;-41
2022/10/09 04:11:22;;;;;;;0.75;0.40;;;23.00;58.00;;;;;;5038498;28;20464;-42
2022/10/09 04:13:48;;;;;;;1.05;0.32;;;23.00;57.90;;;;;;5035377;28;20041;-42
2022/10/09 04:16:14;;;;;;;0.65;0.30;;;23.10;57.90;;;;;;5023974;28;20030;-42
2022/10/09 04:18:41;;;;;;;0.50;0.43;;;23.00;57.80;;;;;;5021202;28;20104;-43
2022/10/09 04:21:07;;;;;;;;;;;23.10;57.80;;;;;;5019979;28;20040;-39
2022/10/09 04:23:33;;;;;;;1.73;0.30;;;23.10;58.00;;;;;;5043449;28;19944;-40
2022/10/09 04:25:59;;;;;;;2.05;0.30;;;23.00;57.60;;;;;;5025584;28;20453;-40
2022/10/09 04:28:26;;;;;;;0.90;0.40;;;23.00;57.60;;;;;;5029186;28;20061;-39
2022/10/09 04:30:52;;;;;;;0.40;0.40;;;23.00;57.70;;;;;;5024735;28;20053;-40
2022/10/09 04:33:25;;;;;;;0.35;0.32;;;23.00;57.60;;;;;;5042015;28;20037;-45
2022/10/09 04:35:52;;;;;;;0.65;0.30;;;23.00;57.50;;;;;;5033646;28;20113;-49
2022/10/09 04:38:19;;;;;;;0.28;0.20;;;23.00;57.50;;;;;;5042365;28;20037;-44
2022/10/09 04:40:57;;;;;;;0.47;0.40;;;22.90;57.50;;;;;;5027030;28;20034;-42
2022/10/09 04:43:24;;;;;;;0.40;0.30;;;22.90;57.50;;;;;;5026612;28;20037;-45
2022/10/09 04:45:50;;;;;;;0.60;0.40;;;22.90;57.50;;;;;;5039162;28;20548;-45
2022/10/09 04:48:16;;;;;;;0.50;0.35;;;22.90;57.40;;;;;;5025476;28;20053;-43
2022/10/09 04:50:42;;;;;;;0.22;0.20;;;22.90;57.40;;;;;;5020806;28;20030;-44
2022/10/09 04:53:09;;;;;;;0.30;0.30;;;22.90;57.50;;;;;;5024279;28;20574;-43
2022/10/09 04:55:41;;;;;;;0.40;0.30;;;22.90;57.30;;;;;;5019567;28;20587;-43
2022/10/09 04:58:08;;;;;;;0.57;0.38;;;22.90;57.20;;;;;;5021678;28;20026;-38
2022/10/09 05:00:34;;;;;;;0.40;0.40;;;22.80;57.40;;;;;;5041998;28;20037;-42
2022/10/09 05:03:00;;;;;;;0.60;0.20;;;22.80;57.40;;;;;;5031584;28;20052;-41
2022/10/09 05:05:26;;;;;;;0.55;0.50;;;22.90;57.40;;;;;;5042359;28;20493;-41
2022/10/09 05:07:52;;;;;;;0.50;0.38;;;22.90;57.30;;;;;;5032215;28;20046;-40
2022/10/09 05:10:18;;;;;;;0.38;0.38;;;22.80;57.30;;;;;;5027390;28;20030;-39
2022/10/09 05:12:45;;;;;;;0.45;0.30;;;22.80;57.30;;;;;;5020083;28;20060;-42
2022/10/09 05:15:11;;;;;;;0.55;0.30;;;22.80;57.10;;;;;;5024641;28;20034;-41
2022/10/09 05:17:37;;;;;;;0.52;0.40;;;22.80;57.10;;;;;;5024428;28;20033;-41
2022/10/09 05:20:03;;;;;;;0.30;0.30;;;22.80;57.10;;;;;;5016357;28;20026;-41
2022/10/09 05:22:29;;;;;;;0.50;0.30;;;22.80;57.20;;;;;;5018094;28;20061;-41
2022/10/09 05:24:55;;;;;;;0.80;0.50;;;22.70;57.10;;;;;;5011836;28;20057;-42
2022/10/09 05:27:21;;;;;;;0.65;0.30;;;22.70;57.30;;;;;;5020093;28;20038;-41
2022/10/09 05:29:47;;;;;;;1.02;0.38;;;22.70;57.40;;;;;;5032493;28;20038;-44
2022/10/09 05:32:13;;;;;;;0.68;0.30;;;22.60;57.30;;;;;;5019928;28;20030;-41
2022/10/09 05:34:40;;;;;;;0.60;0.30;;;22.60;57.50;;;;;;5009527;28;20030;-43
2022/10/09 05:37:07;;;;;;;0.50;0.35;;;22.60;57.50;;;;;;5024280;28;20026;-42
2022/10/09 05:39:34;;;;;;;0.88;0.30;;;22.50;57.40;;;;;;5032583;28;20064;-41
2022/10/09 05:42:01;;;;;;;0.98;0.40;;;22.50;57.50;;;;;;5023443;28;20049;-41
2022/10/09 05:44:27;;;;;;;0.43;0.35;;;22.50;57.40;;;;;;5030161;28;20036;-40
2022/10/09 05:46:53;;;;;;;0.40;0.40;;;22.50;57.40;;;;;;5022499;28;20064;-39
2022/10/09 05:49:19;;;;;;;0.85;0.40;;;22.50;57.40;;;;;;5019831;28;20038;-38
2022/10/09 05:51:45;;;;;;;0.40;0.40;;;22.50;57.30;;;;;;5033061;28;20032;-38
2022/10/09 05:54:15;;;;;;;0.30;0.30;;;22.50;57.30;;;;;;5039519;28;20034;-39
2022/10/09 05:56:42;;;;;;;0.40;0.40;;;22.50;57.30;;;;;;5026763;28;20031;-40
2022/10/09 05:59:09;;;;;;;0.35;0.30;;;22.50;57.30;;;;;;5016380;28;20025;-44
2022/10/09 06:01:37;;;;;;;0.52;0.40;;;22.40;57.20;;;;;;5013881;28;20406;-43
2022/10/09 06:04:04;;;;;;;0.32;0.25;;;22.40;57.20;;;;;;5013904;28;20038;-46
2022/10/09 06:06:31;;;;;;;1.77;0.50;;;22.40;57.20;;;;;;5016568;28;20136;-44
2022/10/09 06:08:57;;;;;;;0.45;0.35;;;22.40;57.20;;;;;;5018364;28;20030;-44
2022/10/09 06:11:31;;;;;;;0.63;0.38;;;22.40;57.20;;;;;;5023452;28;20067;-43
2022/10/09 06:14:00;;;;;;;0.40;0.40;;;22.30;57.60;;;;;;5034414;28;20033;-48
2022/10/09 06:16:28;;;;;;;0.82;0.40;;;22.30;57.80;;;;;;5019308;28;20034;-47
2022/10/09 06:18:55;;;;;;;0.30;0.30;;;22.20;57.80;;;;;;5005484;28;20107;-45
2022/10/09 06:21:21;;;;;;;0.40;0.40;;;22.10;57.80;;;;;;5022835;28;20038;-48
2022/10/09 06:23:51;;;;;;;0.40;0.40;;;22.10;57.80;;;;;;5009185;28;20038;-48
2022/10/09 06:26:18;;;;;;;0.25;0.25;;;22.00;57.80;;;;;;5020418;28;20026;-40
2022/10/09 06:28:44;;;;;;;0.50;0.30;;;22.00;57.90;;;;;;5015136;28;20033;-40
2022/10/09 06:31:17;;;;;;;0.77;0.40;;;22.10;57.90;;;;;;5022644;28;20084;-41
2022/10/09 06:33:44;;;;;;;0.80;0.45;;;22.00;57.70;;;;;;5006966;28;20104;-43
2022/10/09 06:36:17;;;;;;;0.30;0.30;;;22.00;57.80;;;;;;5023684;28;20018;-42
2022/10/09 06:39:05;;;;;;;0.65;0.40;;;22.00;57.80;;;;;;4980548;28;20051;-42
2022/10/09 06:41:31;;;;;;;0.30;0.30;;;22.00;57.80;;;;;;4981733;28;20070;-42
2022/10/09 06:44:03;;;;;;;0.57;0.40;;;22.00;57.70;;;;;;4978645;28;20039;-44
2022/10/09 06:46:35;;;;;;;0.70;0.40;;;22.00;57.70;;;;;;4966241;28;20034;-41
2022/10/09 06:49:02;;;;;;;0.95;0.30;;;22.00;57.70;;;;;;4969836;28;20038;-43
2022/10/09 06:51:28;;;;;;;0.40;0.30;;;21.90;57.70;;;;;;4980446;28;20053;-44
2022/10/09 06:53:56;;;;;;;0.70;0.40;;;21.90;57.70;;;;;;4979619;28;20038;-42
2022/10/09 06:56:23;;;;;;;0.22;0.20;;;21.90;57.70;;;;;;4981415;28;20452;-41
2022/10/09 06:58:49;;;;;;;;;;;21.90;57.70;;;;;;4978334;28;20031;-41
2022/10/09 07:01:20;;;;;;;0.45;0.30;;;21.80;57.60;;;;;;4980932;28;19913;-41
2022/10/09 07:03:47;;;;;;;0.63;0.45;;;21.80;57.70;;;;;;4976819;28;20031;-46
2022/10/09 07:06:20;;;;;;;0.30;0.30;;;21.80;57.70;;;;;;4963138;28;20058;-45
2022/10/09 07:08:49;;;;;;;0.45;0.45;;;21.80;57.60;;;;;;4980937;28;20412;-45
2022/10/09 07:11:19;;;;;;;0.30;0.30;;;21.80;57.80;;;;;;4964638;28;20122;-44
2022/10/09 07:13:46;;;;;;;0.40;0.30;;;21.70;57.70;;;;;;4973004;28;20030;-45
2022/10/09 07:16:13;;;;;;;0.40;0.32;;;21.70;57.70;;;;;;5005779;28;20067;-43
2022/10/09 07:18:39;;;;;;;0.30;0.30;;;21.70;57.70;;;;;;5022691;28;20061;-45
2022/10/09 07:21:06;;;;;;;0.28;0.20;;;21.70;57.70;;;;;;5006090;28;20115;-43
2022/10/09 07:23:33;;;;;;;0.30;0.30;;;21.70;57.70;;;;;;5006999;28;20478;-49
2022/10/09 07:25:59;;;;;;;0.57;0.50;;;21.70;57.70;;;;;;5025194;28;20040;-51
2022/10/09 07:28:26;;;;;;;0.80;0.30;;;21.60;57.60;;;;;;5039749;28;20049;-47
2022/10/09 07:30:52;;;;;;;0.50;0.50;;;21.60;57.60;;;;;;5024288;28;20053;-43
2022/10/09 07:33:19;;;;;;;0.40;0.40;;;21.60;57.60;;;;;;5022536;28;20045;-44
2022/10/09 07:35:58;;;;;;;0.82;0.50;;;21.60;57.70;;;;;;5021161;28;20502;-43
2022/10/09 07:38:24;;;;;;;0.55;0.32;;;21.50;57.90;;;;;;5012099;28;20081;-44
2022/10/09 07:40:51;;;;;;;1.38;0.50;;;21.40;58.10;;;;;;5022551;28;20037;-43
2022/10/09 07:43:17;;;;;;;0.35;0.30;;;21.40;58.70;;;;;;5012074;28;20061;-43
2022/10/09 07:45:43;;;;;;;0.70;0.40;;;21.40;58.70;;;;;;5022314;28;20057;-39
2022/10/09 07:48:09;;;;;;;0.98;0.40;;;21.30;58.70;;;;;;5021304;28;20061;-40
2022/10/09 07:50:35;;;;;;;0.70;0.40;;;21.30;59.30;;;;;;5017109;28;20033;-39
2022/10/09 07:53:02;;;;;;;0.70;0.30;;;21.20;58.70;;;;;;5028891;28;20040;-40
2022/10/09 07:55:28;;;;;;;0.52;0.40;;;21.20;58.70;;;;;;5021433;28;20030;-40
2022/10/09 07:57:54;;;;;;;0.50;0.43;;;21.20;58.70;;;;;;5021371;28;20034;-40
2022/10/09 08:00:20;;;;;;;0.40;0.30;;;21.20;58.60;;;;;;5021518;28;20033;-40
2022/10/09 08:02:46;;;;;;;0.82;0.40;;;21.20;58.50;;;;;;5020246;28;20045;-38
2022/10/09 08:05:12;;;;;;;0.30;0.30;;;21.10;58.50;;;;;;5040201;28;20022;-42
2022/10/09 08:07:38;;;;;;;0.40;0.40;;;21.20;58.50;;;;;;5028332;28;20041;-43
2022/10/09 08:10:04;;;;;;;0.47;0.35;;;21.10;58.40;;;;;;5028838;28;20048;-43
2022/10/09 08:12:31;;;;;;;0.67;0.40;;;21.10;58.40;;;;;;5022356;28;20038;-42
2022/10/09 08:14:57;;;;;;;0.40;0.40;;;21.10;58.40;;;;;;5017305;28;20280;-42
2022/10/09 08:17:23;;;;;;;0.30;0.30;;;21.10;58.50;;;;;;5024796;28;20026;-43
2022/10/09 08:19:49;;;;;;;0.55;0.45;;;21.00;58.40;;;;;;5024322;28;20116;-43
2022/10/09 08:22:15;;;;;;;0.43;0.40;;;21.00;58.60;;;;;;5018607;28;20101;-42
2022/10/09 08:24:44;;;;;;;1.60;0.60;;;21.00;58.60;;;;;;5030315;28;20033;-37
2022/10/09 08:27:11;;;;;;;0.57;0.40;;;21.00;58.80;;;;;;5023100;28;20843;-37
2022/10/09 08:29:37;;;;;;;0.43;0.40;;;21.00;58.90;;;;;;5035102;28;20049;-37
2022/10/09 08:32:03;;;;;;;0.47;0.40;;;21.00;59.00;;;;;;5023803;28;20037;-37
2022/10/09 08:34:29;;;;;;;1.88;0.47;;;21.00;59.00;;;;;;5043290;28;20418;-37
2022/10/09 08:36:55;;;;;;;0.32;0.30;;;21.00;58.90;;;;;;5025652;28;20029;-39
2022/10/09 08:39:21;;;;;;;0.73;0.40;;;20.90;58.80;;;;;;5013838;28;20038;-39
2022/10/09 08:41:51;;;;;;;0.82;0.40;;;20.90;58.80;;;;;;5019290;28;20022;-39
2022/10/09 08:44:47;;;;;;;0.68;0.50;;;20.90;58.70;;;;;;5015986;28;20057;-42
2022/10/09 08:48:05;;;;;;;0.40;0.35;;;20.90;58.70;;;;;;5018235;28;20053;-40
2022/10/09 08:50:34;;;;;;;0.50;0.50;;;20.90;58.70;;;;;;5012977;28;20049;-40
2022/10/09 08:53:23;;;;;;;0.63;0.40;;;20.90;58.70;;;;;;5017543;28;20050;-40
2022/10/09 08:55:54;;;;;;;0.50;0.40;;;20.90;58.60;;;;;;5016957;28;20101;-41
2022/10/09 08:58:21;;;;;;;0.50;0.30;;;20.80;58.60;;;;;;5018747;28;20041;-40
2022/10/09 09:00:53;;;;;;;0.45;0.40;;;20.80;58.60;;;;;;5018561;28;20022;-40
2022/10/09 09:03:19;;;;;;;0.70;0.40;;;20.80;58.60;;;;;;5016029;28;20037;-41
2022/10/09 09:05:57;;;;;;;0.45;0.40;;;20.80;58.60;;;;;;5019825;28;20033;-41
2022/10/09 09:08:52;;;;;;;0.95;0.50;;;20.80;58.60;;;;;;5018063;28;20148;-41
2022/10/09 09:11:24;;;;;;;0.80;0.40;;;20.70;58.50;;;;;;5002409;28;20047;-40
2022/10/09 09:14:08;;;;;;;1.92;0.38;;;20.70;58.70;;;;;;5024886;28;20034;-38
2022/10/09 09:16:49;;;;;;;0.40;0.40;;;20.60;59.20;;;;;;5024976;28;20034;-38
2022/10/09 09:19:18;;;;;;;1.30;0.50;;;20.60;59.40;;;;;;5021881;28;20014;-38
2022/10/09 09:21:50;;;;;;;1.60;0.30;;;20.50;59.40;;;;;;5026384;28;20050;-37
2022/10/09 09:24:37;;;;;;;0.40;0.40;;;20.40;59.40;;;;;;5024479;28;20109;-37
2022/10/09 09:27:09;;;;;;;0.45;0.40;;;20.40;59.40;;;;;;5022592;28;20030;-39
2022/10/09 09:29:40;;;;;;;0.52;0.40;;;20.30;59.50;;;;;;5022498;28;20049;-40
2022/10/09 09:32:12;;;;;;;0.70;0.45;;;20.30;59.60;;;;;;5037525;28;20033;-40
2022/10/09 09:34:39;;;;;;;0.50;0.30;;;20.30;59.60;;;;;;5021811;28;20026;-42
2022/10/09 09:37:07;;;;;;;1.63;0.40;;;20.20;59.60;;;;;;5023016;28;20105;-43
2022/10/09 09:39:33;;;;;;;1.75;0.40;;;20.20;59.70;;;;;;5013753;28;20051;-39
2022/10/09 09:42:06;;;;;;;2.07;0.50;;;20.10;59.60;;;;;;5016954;28;20057;-42
2022/10/09 09:44:32;;;;;;;0.65;0.50;;;20.10;59.60;;;;;;5017001;28;20040;-40
2022/10/09 09:46:58;;;;;;;0.40;0.30;;;20.10;59.60;;;;;;5018785;28;20064;-40
2022/10/09 09:49:26;;;;;;;1.00;0.50;;;20.10;59.60;;;;;;5014381;28;20128;-39
2022/10/09 09:51:52;;;;;;;0.85;0.50;;;20.10;59.70;;;;;;5015191;28;20482;-40
2022/10/09 09:54:23;;;;;;;0.30;0.30;;;20.00;60.00;;;;;;5017791;28;20026;-41
2022/10/09 09:56:50;;;;;;;0.65;0.40;;;20.00;60.10;;;;;;5016099;28;20034;-40
2022/10/09 09:59:26;;;;;;;;;;;20.00;60.60;;;;;;5017082;28;20041;-40
2022/10/09 10:02:05;;;;;;;0.40;0.40;;;20.00;59.90;;;;;;5014685;28;19909;-40
2022/10/09 10:04:31;;;;;;;0.73;0.45;;;19.90;60.00;;;;;;5017832;28;20042;-42
2022/10/09 10:06:57;;;;;;;0.60;0.40;;;19.90;59.90;;;;;;5017991;28;20056;-43
2022/10/09 10:09:23;;;;;;;0.60;0.40;;;19.90;59.80;;;;;;5017776;28;20053;-38
2022/10/09 10:11:56;;;;;;;0.70;0.40;;;20.00;59.80;;;;;;5023935;28;20661;-38
2022/10/09 10:14:23;;;;;;;0.85;0.40;;;19.90;59.80;;;;;;5042255;28;20101;-44
2022/10/09 10:16:50;;;;;;;0.45;0.30;;;19.90;59.90;;;;;;5022340;28;20040;-44
2022/10/09 10:19:30;;;;;;;0.50;0.50;;;19.80;60.00;;;;;;5020409;28;20125;-45
2022/10/09 10:22:01;;;;;;;0.32;0.30;;;19.70;60.00;;;;;;5014868;28;20102;-44
2022/10/09 10:24:33;;;;;;;0.47;0.40;;;19.70;60.00;;;;;;5029503;28;20083;-42
2022/10/09 10:27:18;;;;;;;0.60;0.45;;;19.70;60.10;;;;;;5036326;28;20105;-43
2022/10/09 10:29:45;;;;;;;0.50;0.38;;;19.70;60.10;;;;;;5036178;28;20038;-49
2022/10/09 10:32:34;;;;;;;0.65;0.40;;;19.60;60.10;;;;;;5033728;28;20026;-41
2022/10/09 10:35:21;;;;;;;0.47;0.32;;;19.60;60.10;;;;;;5021830;28;20030;-42
2022/10/09 10:38:12;;;;;;;0.60;0.50;;;19.60;60.20;;;;;;5032653;28;20057;-40
2022/10/09 10:40:42;;;;;;;0.40;0.40;;;19.60;60.50;;;;;;5022621;28;20093;-40
2022/10/09 10:43:08;;;;;;;0.60;0.40;;;19.50;60.60;;;;;;5023970;28;20038;-42
2022/10/09 10:45:41;;;;;;;0.70;0.40;;;19.50;60.60;;;;;;5023515;28;20026;-40
2022/10/09 10:48:12;;;;;;;0.50;0.40;;;19.40;60.60;;;;;;5024120;28;20030;-40
2022/10/09 10:50:54;;;;;;;0.40;0.40;;;19.40;60.70;;;;;;5023569;28;20021;-40
2022/10/09 10:53:20;;;;;;;0.50;0.50;;;19.40;60.70;;;;;;5019526;28;20037;-39
2022/10/09 10:55:54;;;;;;;0.30;0.30;;;19.40;60.60;;;;;;5025288;28;20022;-45
2022/10/09 10:58:28;;;;;;;0.50;0.50;;;19.30;60.70;;;;;;5031336;28;20060;-43
2022/10/09 11:01:25;;;;;;;0.60;0.38;;;19.30;60.90;;;;;;5026652;28;20706;-45
2022/10/09 11:04:00;;;;;;;0.68;0.40;;;19.30;60.90;;;;;;5013633;28;20053;-43
2022/10/09 11:06:37;;;;;;;0.50;0.50;;;19.40;60.80;;;;;;5027023;28;20521;-39
2022/10/09 11:09:26;;;;;;;0.50;0.50;;;19.30;60.70;;;;;;5015130;28;20159;-38
2022/10/09 11:12:18;;;;;;;0.73;0.50;;;19.40;60.60;;;;;;5017137;28;20034;-37
2022/10/09 11:15:05;;;;;;;0.68;0.50;;;19.40;60.50;;;;;;5024478;28;20056;-38
2022/10/09 11:17:49;;;;;;;0.40;0.30;;;19.40;60.40;;;;;;5025882;28;20033;-37
2022/10/09 11:20:51;;;;;;;0.45;0.43;;;19.40;60.30;;;;;;5019337;28;20040;-39
2022/10/09 11:23:44;;;;;;;0.40;0.40;;;19.40;60.20;;;;;;4998946;28;20034;-38
2022/10/09 11:26:34;;;;;;;0.60;0.50;;;19.40;60.10;;;;;;5011256;28;20038;-37
2022/10/09 11:29:19;;;;;;;0.60;0.40;;;19.30;60.00;;;;;;5010318;28;20105;-38
2022/10/09 11:31:57;;;;;;;0.55;0.35;;;19.30;60.00;;;;;;5025450;28;20053;-38
2022/10/09 11:34:35;;;;;;;0.47;0.38;;;19.30;60.00;;;;;;5023754;28;20055;-38
2022/10/09 11:37:01;;;;;;;0.40;0.40;;;19.30;60.00;;;;;;5029579;28;20072;-38
2022/10/09 11:39:29;;;;;;;0.60;0.50;;;19.30;60.00;;;;;;5019893;28;20054;-38
2022/10/09 11:41:55;;;;;;;1.00;0.50;;;19.30;60.00;;;;;;5020544;28;20033;-38
2022/10/09 11:44:36;;;;;;;0.52;0.40;;;19.20;60.90;;;;;;5023231;28;20034;-39
2022/10/09 11:47:11;;;;;;;0.60;0.50;;;19.30;60.80;;;;;;5019340;28;20038;-39
2022/10/09 11:50:14;;;;;;;1.08;0.50;;;19.30;60.80;;;;;;5020413;28;20033;-40
2022/10/09 11:53:11;;;;;;;0.40;0.40;;;19.20;60.80;;;;;;5036490;28;20039;-39
2022/10/09 11:55:38;;;;;;;0.40;0.40;;;19.20;60.80;;;;;;5024883;28;20061;-38
2022/10/09 11:58:20;;;;;;;0.57;0.50;;;19.20;60.70;;;;;;5022633;28;20026;-38
2022/10/09 12:00:49;;;;;;;0.45;0.30;;;19.10;60.70;;;;;;5028360;28;20060;-41
2022/10/09 12:03:26;;;;;;;0.40;0.40;;;19.10;60.70;;;;;;5002172;28;20026;-42
2022/10/09 12:05:52;;;;;;;0.95;0.47;;;19.10;60.70;;;;;;5049894;28;20042;-42
2022/10/09 12:08:25;;;;;;;0.65;0.40;;;19.10;60.60;;;;;;5018495;28;20046;-42
2022/10/09 12:11:18;;;;;;;0.40;0.40;;;19.10;60.60;;;;;;5021070;28;20068;-40
2022/10/09 12:13:56;;;;;;;0.43;0.43;;;19.10;60.60;;;;;;5012302;28;20061;-40
2022/10/09 12:16:40;;;;;;;0.73;0.40;;;19.10;60.60;;;;;;5016864;28;20037;-39
2022/10/09 12:19:15;;;;;;;0.85;0.50;;;19.00;60.50;;;;;;5012071;28;20117;-42
2022/10/09 12:21:52;;;;;;;0.47;0.40;;;19.00;61.30;;;;;;5012889;28;20516;-42
2022/10/09 12:24:38;;;;;;;0.52;0.50;;;19.00;60.60;;;;;;5022886;28;20029;-42
2022/10/09 12:27:04;;;;;;;0.30;0.30;;;18.90;60.50;;;;;;5015359;28;20041;-43
2022/10/09 12:29:47;;;;;;;0.57;0.50;;;18.90;60.50;;;;;;5017464;28;20034;-39
2022/10/09 12:32:37;;;;;;;0.40;0.40;;;18.90;60.50;;;;;;5016264;28;20046;-40
2022/10/09 12:35:25;;;;;;;0.80;0.45;;;18.90;60.50;;;;;;5009018;28;20045;-39
2022/10/09 12:37:51;;;;;;;0.68;0.50;;;18.90;60.60;;;;;;5012772;28;20030;-36
2022/10/09 12:40:30;;;;;;;0.50;0.50;;;18.90;60.60;;;;;;5022107;28;20629;-36
2022/10/09 12:42:57;;;;;;;0.73;0.60;;;18.80;60.50;;;;;;5021327;28;20042;-38
2022/10/09 12:45:24;;;;;;;0.40;0.40;;;18.80;60.60;;;;;;5021689;28;20030;-38
2022/10/09 12:47:51;;;;;;;0.40;0.40;;;18.80;60.60;;;;;;5014899;28;20053;-39
2022/10/09 12:50:31;;;;;;;0.70;0.40;;;18.80;60.60;;;;;;5020511;28;20034;-40
2022/10/09 12:53:05;;;;;;;0.68;0.45;;;18.80;60.70;;;;;;5015581;28;20045;-43
2022/10/09 12:55:39;;;;;;;2.15;0.50;;;18.80;60.70;;;;;;5020617;28;20161;-41
2022/10/09 12:58:17;;;;;;;0.40;0.40;;;18.70;61.40;;;;;;5024737;28;20034;-41
2022/10/09 13:00:44;;;;;;;0.43;0.40;;;18.60;61.90;;;;;;5024224;28;20053;-39
2022/10/09 13:03:36;;;;;;;0.73;0.52;;;18.60;61.50;;;;;;5029240;28;20026;-40
2022/10/09 13:06:07;;;;;;;0.60;0.50;;;18.60;61.40;;;;;;5022938;28;20108;-40
2022/10/09 13:08:37;;;;;;;0.57;0.40;;;18.70;61.40;;;;;;5024425;28;20042;-42